createdAt,value
2019-05-13T00:00:44.423Z,8.50
2019-05-13T00:03:13.657Z,8.30
2019-05-13T00:05:40.910Z,8.10
2019-05-13T00:08:08.678Z,8.00
2019-05-13T00:10:36.320Z,8.00
2019-05-13T00:13:04.481Z,7.90
2019-05-13T00:15:33.952Z,8.00
2019-05-13T00:18:03.608Z,7.90
2019-05-13T00:20:30.871Z,7.70
2019-05-13T00:22:58.346Z,7.60
2019-05-13T00:25:25.828Z,7.60
2019-05-13T00:27:53.739Z,7.60
2019-05-13T00:30:23.415Z,7.50
2019-05-13T00:32:50.582Z,7.50
2019-05-13T00:35:17.919Z,7.40
2019-05-13T00:37:45.420Z,7.30
2019-05-13T00:40:14.383Z,7.30
2019-05-13T00:42:44.166Z,7.20
2019-05-13T00:45:14.265Z,7.10
2019-05-13T00:47:43.453Z,7.00
2019-05-13T00:50:10.460Z,7.00
2019-05-13T00:52:38.172Z,7.00
2019-05-13T00:55:05.704Z,7.00
2019-05-13T00:57:34.183Z,7.00
2019-05-13T01:00:03.511Z,6.90
2019-05-13T01:02:31.063Z,6.90
2019-05-13T01:04:58.720Z,6.80
2019-05-13T01:07:28.972Z,6.80
2019-05-13T01:09:55.671Z,6.90
2019-05-13T01:12:23.794Z,7.00
2019-05-13T01:14:53.324Z,6.80
2019-05-13T01:17:20.653Z,6.80
2019-05-13T01:19:48.372Z,6.80
2019-05-13T01:22:16.358Z,6.60
2019-05-13T01:24:44.304Z,6.50
2019-05-13T01:27:13.379Z,6.60
2019-05-13T01:29:43.503Z,6.50
2019-05-13T01:32:11.157Z,6.50
2019-05-13T01:34:38.557Z,6.40
2019-05-13T01:37:06.306Z,6.40
2019-05-13T01:39:35.043Z,6.40
2019-05-13T01:42:03.632Z,6.30
2019-05-13T01:44:33.566Z,6.30
2019-05-13T01:47:01.658Z,6.20
2019-05-13T01:49:30.106Z,6.10
2019-05-13T01:51:57.421Z,6.00
2019-05-13T01:54:24.837Z,6.00
2019-05-13T01:56:53.542Z,5.80
2019-05-13T01:59:23.802Z,5.90
2019-05-13T02:01:50.773Z,5.80
2019-05-13T02:04:18.396Z,5.80
2019-05-13T02:06:46.646Z,5.70
2019-05-13T02:09:14.306Z,5.80
2019-05-13T02:11:44.455Z,5.70
2019-05-13T02:14:13.268Z,5.60
2019-05-13T02:16:40.759Z,5.50
2019-05-13T02:19:08.562Z,5.50
2019-05-13T02:21:36.303Z,5.50
2019-05-13T02:24:04.303Z,5.50
2019-05-13T02:26:34.539Z,5.40
2019-05-13T02:29:03.716Z,5.50
2019-05-13T02:31:44.954Z,5.40
2019-05-13T02:34:02.509Z,5.30
2019-05-13T02:36:32.648Z,5.30
2019-05-13T02:39:02.234Z,5.20
2019-05-13T02:41:28.196Z,5.20
2019-05-13T02:43:55.624Z,5.20
2019-05-13T02:46:23.608Z,5.10
2019-05-13T02:48:52.847Z,5.60
2019-05-13T02:51:23.009Z,5.10
2019-05-13T02:53:52.397Z,5.10
2019-05-13T02:56:22.400Z,5.10
2019-05-13T02:58:48.547Z,5.00
2019-05-13T03:01:15.999Z,5.00
2019-05-13T03:03:44.524Z,5.00
2019-05-13T03:06:13.280Z,4.90
2019-05-13T03:08:49.418Z,4.80
2019-05-13T03:11:12.658Z,4.80
2019-05-13T03:13:42.548Z,4.80
2019-05-13T03:16:15.841Z,4.70
2019-05-13T03:18:43.882Z,4.70
2019-05-13T03:21:13.056Z,4.80
2019-05-13T03:23:44.280Z,4.60
2019-05-13T03:26:13.060Z,4.50
2019-05-13T03:28:43.706Z,4.50
2019-05-13T03:31:16.823Z,4.50
2019-05-13T03:33:46.642Z,4.60
2019-05-13T03:36:15.248Z,4.50
2019-05-13T03:38:58.804Z,4.50
2019-05-13T03:41:12.242Z,4.50
2019-05-13T03:43:42.920Z,4.50
2019-05-13T03:46:12.243Z,4.40
2019-05-13T03:48:42.804Z,4.40
2019-05-13T03:51:12.932Z,4.40
2019-05-13T03:53:39.064Z,4.30
2019-05-13T03:56:06.616Z,4.30
2019-05-13T03:58:34.041Z,4.40
2019-05-13T04:01:02.860Z,4.30
2019-05-13T04:03:33.152Z,4.40
2019-05-13T04:06:03.279Z,4.40
2019-05-13T04:08:32.370Z,4.40
2019-05-13T04:10:58.937Z,4.40
2019-05-13T04:13:26.617Z,4.50
2019-05-13T04:15:54.366Z,4.50
2019-05-13T04:18:23.554Z,4.50
2019-05-13T04:20:53.011Z,4.60
2019-05-13T04:23:23.331Z,4.70
2019-05-13T04:25:53.379Z,4.70
2019-05-13T04:28:22.265Z,4.70
2019-05-13T04:30:52.648Z,4.80
2019-05-13T04:33:22.574Z,4.80
2019-05-13T04:35:48.769Z,4.80
2019-05-13T04:38:16.347Z,4.90
2019-05-13T04:40:43.935Z,5.00
2019-05-13T04:43:13.036Z,5.10
2019-05-13T04:45:43.016Z,5.10
2019-05-13T04:48:12.773Z,5.20
2019-05-13T04:50:42.921Z,5.20
2019-05-13T04:53:09.543Z,5.30
2019-05-13T04:55:37.553Z,5.40
2019-05-13T04:58:05.002Z,5.60
2019-05-13T05:01:02.160Z,4.80
2019-05-13T05:03:41.381Z,5.70
2019-05-13T05:06:26.455Z,5.80
2019-05-13T05:09:28.451Z,5.80
2019-05-13T05:12:38.096Z,6.00
2019-05-13T05:15:36.144Z,6.10
2019-05-13T05:18:42.298Z,6.30
2019-05-13T05:21:16.355Z,6.50
2019-05-13T05:24:11.575Z,6.70
2019-05-13T05:27:23.436Z,6.70
2019-05-13T05:30:52.439Z,6.80
2019-05-13T05:33:51.719Z,7.00
2019-05-13T05:36:57.214Z,7.30
2019-05-13T05:39:25.617Z,7.80
2019-05-13T05:41:55.594Z,8.20
2019-05-13T05:44:25.135Z,8.30
2019-05-13T05:46:55.395Z,8.60
2019-05-13T05:49:24.905Z,8.70
2019-05-13T05:51:58.734Z,9.00
2019-05-13T05:54:27.452Z,9.80
2019-05-13T05:56:55.763Z,10.40
2019-05-13T05:59:24.905Z,11.00
2019-05-13T06:01:54.795Z,11.40
2019-05-13T06:04:24.731Z,11.50
2019-05-13T06:06:53.891Z,11.80
2019-05-13T06:09:21.475Z,11.70
2019-05-13T06:11:49.397Z,11.90
2019-05-13T06:14:16.757Z,12.20
2019-05-13T06:16:44.103Z,12.80
2019-05-13T06:19:12.210Z,13.30
2019-05-13T06:21:42.015Z,13.20
2019-05-13T06:24:11.654Z,13.40
2019-05-13T06:26:39.043Z,12.80
2019-05-13T06:29:06.406Z,13.00
2019-05-13T06:31:33.871Z,12.90
2019-05-13T06:34:02.133Z,12.60
2019-05-13T06:36:31.688Z,13.10
2019-05-13T06:39:02.019Z,12.80
2019-05-13T06:41:28.665Z,13.60
2019-05-13T06:43:56.030Z,13.70
2019-05-13T06:46:23.476Z,13.70
2019-05-13T06:48:52.097Z,13.80
2019-05-13T06:51:22.038Z,14.10
2019-05-13T06:53:51.476Z,14.00
2019-05-13T06:56:18.257Z,14.10
2019-05-13T06:58:46.104Z,14.10
2019-05-13T07:01:13.462Z,14.80
2019-05-13T07:03:42.027Z,15.00
2019-05-13T07:06:12.297Z,15.70
2019-05-13T07:08:41.714Z,16.20
2019-05-13T07:11:18.655Z,16.50
2019-05-13T07:13:38.491Z,16.10
2019-05-13T07:16:05.883Z,16.60
2019-05-13T07:18:33.335Z,16.70
2019-05-13T07:21:02.244Z,16.30
2019-05-13T07:23:31.792Z,16.80
2019-05-13T07:26:01.541Z,16.50
2019-05-13T07:28:28.261Z,16.10
2019-05-13T07:30:55.728Z,17.00
2019-05-13T07:33:23.165Z,17.50
2019-05-13T07:35:58.074Z,18.00
2019-05-13T07:38:22.465Z,18.00
2019-05-13T07:40:56.942Z,17.80
2019-05-13T07:43:24.289Z,18.00
2019-05-13T07:45:51.684Z,17.30
2019-05-13T07:48:21.433Z,18.00
2019-05-13T07:50:59.079Z,18.00
2019-05-13T07:53:19.222Z,17.80
2019-05-13T07:55:47.124Z,18.00
2019-05-13T07:58:14.619Z,18.50
2019-05-13T08:00:42.154Z,18.70
2019-05-13T08:03:12.023Z,17.90
2019-05-13T08:05:38.895Z,17.80
2019-05-13T08:08:06.257Z,17.60
2019-05-13T08:10:33.653Z,17.80
2019-05-13T08:13:02.321Z,17.80
2019-05-13T08:15:31.652Z,17.40
2019-05-13T08:18:01.792Z,18.20
2019-05-13T08:20:28.650Z,19.20
2019-05-13T08:22:56.267Z,18.80
2019-05-13T08:25:23.671Z,18.80
2019-05-13T08:27:51.603Z,18.90
2019-05-13T08:30:19.194Z,18.30
2019-05-13T08:32:46.728Z,18.50
2019-05-13T08:35:14.733Z,18.20
2019-05-13T08:37:42.183Z,18.70
2019-05-13T08:40:12.044Z,17.80
2019-05-13T08:42:41.474Z,16.80
2019-05-13T08:45:08.721Z,15.60
2019-05-13T08:47:36.149Z,15.30
2019-05-13T08:50:04.634Z,17.40
2019-05-13T08:52:32.172Z,17.00
2019-05-13T08:55:01.422Z,15.50
2019-05-13T08:57:31.425Z,16.70
2019-05-13T08:59:58.385Z,18.90
2019-05-13T09:02:25.955Z,20.20
2019-05-13T09:04:53.360Z,20.30
2019-05-13T09:07:24.066Z,21.20
2019-05-13T09:09:51.226Z,20.90
2019-05-13T09:12:31.480Z,22.00
2019-05-13T09:14:48.106Z,22.40
2019-05-13T09:17:16.043Z,21.20
2019-05-13T09:19:43.691Z,22.60
2019-05-13T09:22:12.385Z,22.90
2019-05-13T09:24:42.460Z,19.10
2019-05-13T09:27:12.046Z,19.40
2019-05-13T09:29:42.329Z,21.20
2019-05-13T09:32:11.921Z,19.80
2019-05-13T09:34:41.991Z,20.90
2019-05-13T09:37:08.594Z,20.10
2019-05-13T09:39:36.044Z,20.70
2019-05-13T09:42:03.733Z,19.60
2019-05-13T09:44:32.714Z,21.30
2019-05-13T09:47:02.569Z,22.10
2019-05-13T09:49:32.468Z,22.30
2019-05-13T09:52:01.667Z,21.00
2019-05-13T09:54:32.220Z,21.60
2019-05-13T09:56:57.990Z,22.00
2019-05-13T09:59:25.361Z,22.50
2019-05-13T10:01:53.424Z,21.50
2019-05-13T10:04:22.242Z,22.00
2019-05-13T10:06:49.915Z,22.70
2019-05-13T10:09:17.744Z,22.10
2019-05-13T10:11:45.141Z,22.60
2019-05-13T10:14:12.500Z,23.00
2019-05-13T10:16:42.087Z,22.30
2019-05-13T10:19:09.155Z,20.80
2019-05-13T10:21:37.596Z,20.50
2019-05-13T10:24:05.071Z,22.30
2019-05-13T10:26:32.697Z,22.30
2019-05-13T10:29:00.511Z,22.20
2019-05-13T10:31:27.971Z,23.30
2019-05-13T10:33:55.406Z,23.60
2019-05-13T10:36:22.935Z,21.00
2019-05-13T10:38:52.209Z,19.90
2019-05-13T10:41:22.290Z,19.20
2019-05-13T10:43:52.122Z,21.40
2019-05-13T10:46:18.999Z,19.70
2019-05-13T10:48:46.489Z,18.10
2019-05-13T10:51:13.965Z,18.20
2019-05-13T10:53:42.719Z,21.40
2019-05-13T10:56:10.806Z,22.50
2019-05-13T10:58:38.597Z,23.40
2019-05-13T11:01:06.043Z,23.90
2019-05-13T11:03:33.554Z,24.40
2019-05-13T11:06:00.990Z,23.40
2019-05-13T11:08:28.384Z,24.20
2019-05-13T11:10:56.037Z,25.60
2019-05-13T11:13:23.565Z,24.40
2019-05-13T11:15:57.503Z,22.70
2019-05-13T11:18:23.702Z,21.90
2019-05-13T11:20:49.900Z,21.80
2019-05-13T11:23:17.379Z,21.90
2019-05-13T11:25:45.594Z,22.60
2019-05-13T11:28:13.145Z,22.90
2019-05-13T11:30:42.333Z,24.20
2019-05-13T11:33:10.344Z,23.90
2019-05-13T11:35:37.904Z,23.70
2019-05-13T11:38:05.381Z,24.10
2019-05-13T11:40:32.775Z,23.40
2019-05-13T11:43:01.691Z,23.00
2019-05-13T11:45:31.558Z,25.30
2019-05-13T11:47:58.573Z,24.40
2019-05-13T11:50:26.031Z,22.60
2019-05-13T11:52:53.541Z,22.80
2019-05-13T11:55:23.027Z,24.30
2019-05-13T11:58:02.897Z,24.10
2019-05-13T12:00:53.077Z,24.70
2019-05-13T12:03:26.523Z,25.30
2019-05-13T12:05:54.192Z,25.00
2019-05-13T12:08:22.707Z,24.70
2019-05-13T12:10:51.825Z,24.20
2019-05-13T12:13:22.702Z,25.20
2019-05-13T12:15:49.987Z,24.90
2019-05-13T12:18:23.157Z,24.10
2019-05-13T12:20:48.435Z,25.00
2019-05-13T12:23:15.906Z,24.40
2019-05-13T12:25:43.957Z,24.00
2019-05-13T12:28:12.149Z,22.70
2019-05-13T12:30:41.803Z,23.40
2019-05-13T12:33:12.956Z,22.30
2019-05-13T12:35:38.538Z,21.70
2019-05-13T12:38:06.032Z,21.40
2019-05-13T12:40:34.412Z,21.70
2019-05-13T12:43:02.267Z,20.10
2019-05-13T12:45:30.338Z,20.80
2019-05-13T12:47:58.309Z,21.20
2019-05-13T12:50:26.064Z,20.00
2019-05-13T12:52:53.810Z,19.60
2019-05-13T12:55:21.757Z,20.60
2019-05-13T12:57:52.072Z,20.90
2019-05-13T13:00:18.861Z,19.90
2019-05-13T13:02:51.603Z,20.70
2019-05-13T13:05:20.693Z,20.60
2019-05-13T13:08:12.185Z,20.90
2019-05-13T13:10:16.865Z,20.20
2019-05-13T13:12:44.658Z,20.00
2019-05-13T13:15:36.005Z,20.10
2019-05-13T13:17:42.409Z,21.10
2019-05-13T13:20:14.738Z,20.90
2019-05-13T13:22:40.188Z,21.00
2019-05-13T13:25:08.287Z,21.00
2019-05-13T13:28:03.230Z,20.00
2019-05-13T13:30:08.451Z,19.90
2019-05-13T13:32:35.490Z,19.80
2019-05-13T13:35:03.885Z,19.80
2019-05-13T13:37:34.988Z,19.20
2019-05-13T13:40:03.305Z,18.70
2019-05-13T13:42:33.034Z,17.40
2019-05-13T13:45:04.714Z,18.20
2019-05-13T13:47:28.855Z,18.70
2019-05-13T13:49:56.273Z,18.50
2019-05-13T13:52:23.619Z,18.60
2019-05-13T13:55:02.169Z,18.70
2019-05-13T13:57:25.653Z,19.20
2019-05-13T14:00:19.287Z,18.80
2019-05-13T14:02:23.942Z,19.80
2019-05-13T14:04:49.770Z,19.70
2019-05-13T14:07:28.085Z,19.50
2019-05-13T14:09:47.334Z,19.40
2019-05-13T14:12:14.725Z,20.10
2019-05-13T14:14:42.177Z,19.10
2019-05-13T14:17:11.340Z,18.80
2019-05-13T14:19:39.048Z,19.60
2019-05-13T14:22:07.088Z,19.60
2019-05-13T14:24:34.447Z,19.70
2019-05-13T14:27:02.913Z,19.70
2019-05-13T14:29:41.056Z,19.40
2019-05-13T14:32:01.298Z,19.60
2019-05-13T14:34:31.781Z,18.80
2019-05-13T14:37:01.044Z,19.00
2019-05-13T14:39:28.219Z,19.30
2019-05-13T14:41:55.975Z,19.10
2019-05-13T14:44:24.054Z,19.20
2019-05-13T14:46:52.348Z,19.70
2019-05-13T14:49:22.377Z,19.00
2019-05-13T14:51:51.791Z,18.60
2019-05-13T14:54:18.867Z,19.10
2019-05-13T14:56:46.557Z,18.80
2019-05-13T14:59:14.002Z,18.80
2019-05-13T15:01:41.688Z,18.50
2019-05-13T15:04:11.981Z,18.70
2019-05-13T15:06:41.442Z,19.10
2019-05-13T15:09:08.030Z,18.20
2019-05-13T15:11:35.684Z,19.00
2019-05-13T15:14:03.295Z,18.80
2019-05-13T15:16:31.722Z,18.40
2019-05-13T15:19:01.516Z,18.90
2019-05-13T15:21:28.773Z,18.30
2019-05-13T15:23:56.132Z,18.50
2019-05-13T15:26:23.602Z,16.90
2019-05-13T15:28:51.916Z,17.50
2019-05-13T15:31:22.112Z,18.30
2019-05-13T15:33:52.434Z,18.40
2019-05-13T15:36:19.319Z,18.80
2019-05-13T15:38:46.632Z,18.30
2019-05-13T15:41:15.713Z,18.00
2019-05-13T15:43:44.016Z,17.90
2019-05-13T15:46:12.652Z,17.90
2019-05-13T15:48:42.168Z,18.00
2019-05-13T15:51:11.293Z,18.30
2019-05-13T15:53:39.157Z,18.00
2019-05-13T15:56:06.546Z,17.60
2019-05-13T15:58:39.664Z,17.80
2019-05-13T16:01:03.318Z,18.20
2019-05-13T16:03:30.742Z,18.10
2019-05-13T16:05:58.295Z,18.10
2019-05-13T16:08:26.275Z,18.10
2019-05-13T16:10:53.666Z,18.00
2019-05-13T16:13:22.184Z,18.10
2019-05-13T16:15:50.053Z,18.10
2019-05-13T16:18:17.743Z,17.60
2019-05-13T16:20:45.556Z,17.90
2019-05-13T16:23:13.436Z,17.90
2019-05-13T16:25:41.675Z,17.80
2019-05-13T16:28:09.573Z,16.80
2019-05-13T16:30:37.385Z,16.50
2019-05-13T16:33:04.702Z,16.50
2019-05-13T16:35:32.288Z,16.00
2019-05-13T16:38:01.833Z,16.40
2019-05-13T16:40:33.662Z,16.50
2019-05-13T16:42:58.508Z,16.40
2019-05-13T16:45:25.941Z,16.30
2019-05-13T16:47:57.452Z,16.40
2019-05-13T16:50:23.694Z,16.20
2019-05-13T16:52:51.219Z,16.20
2019-05-13T16:55:21.040Z,16.20
2019-05-13T16:57:47.967Z,16.30
2019-05-13T17:00:15.727Z,16.10
2019-05-13T17:02:43.050Z,16.00
2019-05-13T17:05:11.998Z,15.70
2019-05-13T17:07:42.006Z,15.90
2019-05-13T17:10:12.479Z,15.90
2019-05-13T17:12:40.111Z,15.70
2019-05-13T17:15:08.185Z,15.60
2019-05-13T17:17:35.964Z,15.40
2019-05-13T17:20:03.856Z,15.30
2019-05-13T17:22:31.881Z,15.10
2019-05-13T17:24:59.299Z,15.10
2019-05-13T17:27:26.998Z,15.00
2019-05-13T17:29:54.295Z,14.90
2019-05-13T17:32:22.304Z,14.90
2019-05-13T17:34:51.563Z,14.90
2019-05-13T17:37:19.191Z,14.60
2019-05-13T17:39:46.896Z,14.60
2019-05-13T17:42:14.216Z,14.40
2019-05-13T17:44:45.991Z,14.40
2019-05-13T17:47:11.640Z,14.30
2019-05-13T17:49:41.712Z,14.20
2019-05-13T17:52:11.851Z,14.10
2019-05-13T17:54:39.308Z,14.00
2019-05-13T17:57:06.979Z,13.90
2019-05-13T17:59:35.420Z,13.90
2019-05-13T18:02:02.869Z,13.70
2019-05-13T18:04:31.471Z,13.60
2019-05-13T18:07:01.400Z,13.50
2019-05-13T18:09:28.584Z,13.40
2019-05-13T18:11:56.049Z,13.40
2019-05-13T18:14:23.501Z,13.30
2019-05-13T18:16:50.934Z,13.10
2019-05-13T18:19:18.684Z,13.00
2019-05-13T18:21:46.044Z,13.00
2019-05-13T18:24:13.448Z,12.80
2019-05-13T18:26:41.919Z,12.80
2019-05-13T18:29:12.343Z,12.70
2019-05-13T18:31:41.808Z,12.60
2019-05-13T18:34:08.889Z,12.60
2019-05-13T18:36:36.183Z,12.40
2019-05-13T18:39:06.000Z,12.40
2019-05-13T18:41:33.762Z,12.30
2019-05-13T18:44:01.445Z,12.20
2019-05-13T18:46:28.844Z,12.20
2019-05-13T18:48:58.915Z,12.10
2019-05-13T18:51:26.367Z,12.00
2019-05-13T18:53:54.109Z,12.00
2019-05-13T18:56:21.904Z,11.80
2019-05-13T18:58:49.784Z,11.80
2019-05-13T19:01:21.437Z,11.70
2019-05-13T19:03:48.620Z,11.60
2019-05-13T19:06:16.019Z,11.50
2019-05-13T19:08:44.006Z,11.50
2019-05-13T19:11:11.748Z,11.40
2019-05-13T19:13:41.476Z,11.30
2019-05-13T19:16:08.655Z,11.30
2019-05-13T19:18:39.165Z,11.30
2019-05-13T19:21:06.571Z,11.20
2019-05-13T19:23:33.946Z,11.10
2019-05-13T19:26:02.083Z,11.10
2019-05-13T19:28:31.752Z,11.00
2019-05-13T19:30:59.461Z,11.00
2019-05-13T19:33:26.926Z,10.90
2019-05-13T19:35:54.507Z,10.70
2019-05-13T19:38:21.941Z,10.70
2019-05-13T19:40:49.282Z,10.70
2019-05-13T19:43:16.992Z,10.60
2019-05-13T19:45:44.756Z,10.50
2019-05-13T19:48:12.449Z,10.40
2019-05-13T19:50:41.603Z,10.30
2019-05-13T19:53:09.206Z,10.30
2019-05-13T19:55:36.948Z,10.20
2019-05-13T19:58:04.399Z,10.10
2019-05-13T20:00:32.170Z,10.00
2019-05-13T20:03:00.642Z,9.90
2019-05-13T20:05:28.133Z,9.80
2019-05-13T20:07:55.455Z,9.80
2019-05-13T20:10:23.526Z,9.70
2019-05-13T20:12:51.281Z,9.60
2019-05-13T20:15:19.420Z,9.50
2019-05-13T20:17:47.040Z,9.20
2019-05-13T20:20:14.416Z,9.40
2019-05-13T20:22:42.404Z,9.40
2019-05-13T20:25:13.142Z,9.40
2019-05-13T20:27:42.114Z,9.20
2019-05-13T20:30:11.435Z,9.20
2019-05-13T20:32:39.656Z,9.10
2019-05-13T20:35:07.356Z,9.10
2019-05-13T20:37:35.040Z,8.90
2019-05-13T20:40:02.814Z,8.70
2019-05-13T20:42:30.986Z,8.60
2019-05-13T20:44:58.440Z,8.70
2019-05-13T20:47:25.944Z,8.50
2019-05-13T20:50:01.334Z,8.60
2019-05-13T20:52:23.687Z,8.50
2019-05-13T20:54:51.378Z,8.40
2019-05-13T20:57:18.767Z,8.30
2019-05-13T20:59:46.503Z,8.10
2019-05-13T21:02:13.864Z,7.90
2019-05-13T21:04:41.497Z,7.80
2019-05-13T21:07:09.168Z,7.90
2019-05-13T21:09:36.578Z,8.00
2019-05-13T21:12:04.054Z,7.90
2019-05-13T21:14:31.975Z,7.70
2019-05-13T21:17:01.400Z,7.50
2019-05-13T21:19:39.136Z,7.40
2019-05-13T21:21:59.134Z,7.40
2019-05-13T21:24:26.816Z,7.30
2019-05-13T21:26:54.785Z,7.20
2019-05-13T21:29:22.188Z,7.20
2019-05-13T21:31:49.989Z,7.10
2019-05-13T21:34:17.600Z,7.20
2019-05-13T21:36:45.610Z,7.00
2019-05-13T21:39:13.349Z,7.10
2019-05-13T21:41:41.390Z,7.00
2019-05-13T21:44:08.827Z,7.00
2019-05-13T21:46:36.476Z,7.00
2019-05-13T21:49:03.832Z,6.80
2019-05-13T21:51:31.534Z,6.70
2019-05-13T21:54:01.055Z,6.70
2019-05-13T21:56:28.517Z,6.70
2019-05-13T21:58:55.872Z,6.50
2019-05-13T22:01:23.517Z,6.50
2019-05-13T22:03:51.488Z,6.50
2019-05-13T22:06:18.920Z,6.50
2019-05-13T22:08:47.023Z,6.50
2019-05-13T22:11:14.669Z,6.40
2019-05-13T22:13:42.135Z,6.30
2019-05-13T22:16:09.507Z,6.20
2019-05-13T22:18:37.433Z,6.20
2019-05-13T22:21:05.187Z,6.20
2019-05-13T22:23:32.856Z,6.10
2019-05-13T22:26:01.593Z,6.10
2019-05-13T22:28:31.251Z,6.00
2019-05-13T22:30:58.503Z,6.00
2019-05-13T22:33:25.801Z,6.00
2019-05-13T22:35:53.512Z,6.00
2019-05-13T22:38:21.419Z,6.00
2019-05-13T22:40:48.909Z,6.00
2019-05-13T22:43:16.289Z,5.90
2019-05-13T22:45:43.724Z,5.80
2019-05-13T22:48:12.075Z,5.70
2019-05-13T22:50:41.655Z,5.70
2019-05-13T22:53:09.110Z,5.60
2019-05-13T22:55:36.483Z,5.50
2019-05-13T22:58:03.807Z,5.40
2019-05-13T23:00:31.766Z,5.40
2019-05-13T23:03:01.635Z,5.40
2019-05-13T23:05:29.262Z,5.30
2019-05-13T23:07:56.593Z,5.40
2019-05-13T23:10:24.338Z,5.40
2019-05-13T23:12:52.140Z,5.30
2019-05-13T23:15:21.272Z,5.10
2019-05-13T23:17:48.848Z,5.00
2019-05-13T23:20:16.227Z,5.00
2019-05-13T23:22:44.213Z,5.10
2019-05-13T23:25:12.300Z,5.10
2019-05-13T23:27:41.544Z,4.90
2019-05-13T23:30:09.048Z,4.60
2019-05-13T23:32:36.403Z,4.70
2019-05-13T23:35:03.883Z,4.70
2019-05-13T23:37:31.230Z,4.60
2019-05-13T23:39:58.613Z,4.70
2019-05-13T23:42:26.284Z,4.70
2019-05-13T23:44:53.595Z,4.70
2019-05-13T23:47:21.838Z,4.50
2019-05-13T23:49:51.211Z,4.50
2019-05-13T23:52:18.570Z,4.40
2019-05-13T23:54:46.229Z,4.30
2019-05-13T23:57:13.576Z,4.30
2019-05-13T23:59:41.918Z,4.20
